GMMN/CMN METAR and TAF weather

Enter ICAO airport designator
Station Type Date Time Source
GMMN METAR 2021/09/23 17:30 UTC NOAA

GMMN 231730Z 34009KT 9999 BKN020 23/18 Q1013 NOSIG


Station Type Date Time Source
GMMN Decoded METAR 2021/09/23 17:30 UTC NOAA

Nouasseur, Morocco (GMMN) 33-22N 007-35W 206M
Sep 23, 2021 - 01:30 PM EDT / 2021.09.23 1730 UTC
Wind: from the NNW (340 degrees) at 10 MPH (9 KT):0
Visibility: greater than 7 mile(s):0
Sky conditions: mostly cloudy
Temperature: 73 F (23 C)
Dew Point: 64 F (18 C)
Relative Humidity: 73%
Pressure (altimeter): 29.91 in. Hg (1013 hPa)
ob: GMMN 231730Z 34009KT 9999 BKN020 23/18 Q1013 NOSIG
cycle: 17

Station Type Date Time Source
GMMN TAF 2021/09/23 18:27 UTC NOAA

TAF GMMN 231700Z 2318/2424 35011KT 9999 BKN020
BECMG 2323/2402 12005KT 2000 BR BKN004
TEMPO 2402/2406 0400 FG BKN002
BECMG 2408/2412 34011KT CAVOK

Example: see airport list